Terminal Aerodrome Forecast
Issued by NWS Wilmington, OH

Home | Current Version | Previous Version | Text Only | Print | Product List | Glossary On
Versions: 1 2 3 4 5 6 7 8 9 10 11 12 13 14 15 16 17 18 19 20 21 22 23 24 25 26 27 28
768
FTUS41 KILN 302337
TAFCVG
TAF
KCVG 302337Z 0100/0206 21005KT P6SM BKN040
     FM010900 19003KT 5SM BR VCSH SCT008 BKN012
     FM011300 19005KT P6SM BKN012
     FM011800 20007KT P6SM -SHRA VCTS SCT025CB BKN035
     FM012100 20006KT P6SM VCSH BKN035
     FM020300 19005KT P6SM SCT025 BKN250=

USA.gov is the U.S. government's official web portal to all federal, state and local government web resources and services.